createdAt,value
2018-07-27T00:01:10.432Z,8.80
2018-07-27T00:03:39.496Z,6.17
2018-07-27T00:06:08.351Z,14.00
2018-07-27T00:08:37.268Z,5.87
2018-07-27T00:11:06.084Z,5.30
2018-07-27T00:13:35.096Z,5.20
2018-07-27T00:16:04.176Z,5.83
2018-07-27T00:18:33.225Z,5.73
2018-07-27T00:21:02.280Z,5.70
2018-07-27T00:23:31.323Z,5.90
2018-07-27T00:26:00.428Z,5.63
2018-07-27T00:28:29.471Z,5.93
2018-07-27T00:30:58.528Z,6.00
2018-07-27T00:33:27.615Z,6.07
2018-07-27T00:35:56.656Z,6.10
2018-07-27T00:38:25.696Z,6.00
2018-07-27T00:40:54.759Z,6.10
2018-07-27T00:43:23.799Z,5.50
2018-07-27T00:45:52.852Z,6.27
2018-07-27T00:48:21.892Z,5.90
2018-07-27T00:50:50.986Z,6.33
2018-07-27T00:53:20.024Z,5.80
2018-07-27T00:55:49.075Z,6.87
2018-07-27T00:58:18.115Z,6.67
2018-07-27T01:00:47.188Z,11.43
2018-07-27T01:03:16.015Z,6.93
2018-07-27T01:05:44.943Z,6.27
2018-07-27T01:08:14.029Z,6.07
2018-07-27T01:10:43.084Z,5.63
2018-07-27T01:13:12.119Z,6.20
2018-07-27T01:15:41.195Z,6.03
2018-07-27T01:18:10.219Z,5.67
2018-07-27T01:20:39.495Z,6.50
2018-07-27T01:23:08.571Z,6.17
2018-07-27T01:25:37.628Z,6.17
2018-07-27T01:28:06.869Z,6.30
2018-07-27T01:30:35.916Z,6.03
2018-07-27T01:33:04.956Z,5.97
2018-07-27T01:35:34.064Z,6.40
2018-07-27T01:38:03.095Z,5.60
2018-07-27T01:40:32.129Z,6.03
2018-07-27T01:43:01.184Z,6.57
2018-07-27T01:45:30.223Z,5.97
2018-07-27T01:47:59.283Z,14.07
2018-07-27T01:50:28.324Z,5.67
2018-07-27T01:52:57.444Z,6.27
2018-07-27T01:55:26.504Z,5.73
2018-07-27T01:57:55.563Z,6.03
2018-07-27T02:00:24.715Z,6.13
2018-07-27T02:02:53.775Z,6.23
2018-07-27T02:05:22.804Z,6.43
2018-07-27T02:07:51.864Z,7.50
2018-07-27T02:10:20.895Z,7.57
2018-07-27T02:12:49.955Z,6.20
2018-07-27T02:15:18.792Z,5.87
2018-07-27T02:17:47.724Z,6.10
2018-07-27T02:20:16.758Z,5.97
2018-07-27T02:22:45.815Z,6.20
2018-07-27T02:25:14.875Z,6.10
2018-07-27T02:27:43.940Z,6.40
2018-07-27T02:30:12.980Z,5.97
2018-07-27T02:32:42.127Z,7.17
2018-07-27T02:35:10.924Z,6.87
2018-07-27T02:37:39.868Z,6.50
2018-07-27T02:40:08.993Z,6.40
2018-07-27T02:42:38.000Z,6.03
2018-07-27T02:45:06.811Z,6.47
2018-07-27T02:47:35.490Z,6.47
2018-07-27T02:50:04.711Z,6.00
2018-07-27T02:52:33.688Z,6.77
2018-07-27T02:55:02.732Z,6.93
2018-07-27T02:57:31.791Z,6.43
2018-07-27T03:00:00.836Z,7.20
2018-07-27T03:02:29.904Z,6.90
2018-07-27T03:04:58.967Z,6.30
2018-07-27T03:07:28.027Z,6.80
2018-07-27T03:09:57.060Z,6.53
2018-07-27T03:12:26.108Z,6.77
2018-07-27T03:14:55.196Z,6.97
2018-07-27T03:17:24.245Z,6.80
2018-07-27T03:19:54.128Z,7.33
2018-07-27T03:22:22.915Z,6.80
2018-07-27T03:24:51.859Z,6.80
2018-07-27T03:27:21.062Z,6.90
2018-07-27T03:29:50.123Z,6.83
2018-07-27T03:32:19.181Z,6.77
2018-07-27T03:34:48.317Z,6.67
2018-07-27T03:37:17.106Z,6.70
2018-07-27T03:39:46.803Z,6.43
2018-07-27T03:42:15.844Z,7.13
2018-07-27T03:44:44.995Z,6.97
2018-07-27T03:47:13.951Z,6.90
2018-07-27T03:49:42.896Z,6.47
2018-07-27T03:52:11.936Z,6.73
2018-07-27T03:54:41.010Z,7.27
2018-07-27T03:57:10.056Z,7.20
2018-07-27T03:59:39.128Z,7.27
2018-07-27T04:02:08.202Z,7.37
2018-07-27T04:04:37.265Z,7.43
2018-07-27T04:07:06.319Z,6.97
2018-07-27T04:09:35.387Z,7.93
2018-07-27T04:12:04.427Z,7.07
2018-07-27T04:14:33.694Z,7.40
2018-07-27T04:17:02.735Z,8.43
2018-07-27T04:19:31.798Z,8.60
2018-07-27T04:22:00.843Z,9.10
2018-07-27T04:24:29.912Z,9.60
2018-07-27T04:26:58.984Z,8.80
2018-07-27T04:29:29.771Z,9.87
2018-07-27T04:31:58.927Z,9.60
2018-07-27T04:34:27.999Z,10.00
2018-07-27T04:36:57.052Z,10.63
2018-07-27T04:39:26.123Z,12.03
2018-07-27T04:41:55.181Z,10.47
2018-07-27T04:44:24.279Z,10.63
2018-07-27T04:46:53.340Z,11.27
2018-07-27T04:49:22.186Z,10.93
2018-07-27T04:51:51.198Z,11.03
2018-07-27T04:54:20.250Z,10.70
2018-07-27T04:56:49.349Z,11.00
2018-07-27T04:59:18.413Z,11.30
2018-07-27T05:01:47.255Z,11.03
2018-07-27T05:04:16.178Z,10.93
2018-07-27T05:06:45.243Z,11.33
2018-07-27T05:09:19.319Z,11.90
2018-07-27T05:11:48.447Z,13.03
2018-07-27T05:14:17.496Z,13.00
2018-07-27T05:16:46.367Z,13.70
2018-07-27T05:19:15.299Z,12.73
2018-07-27T05:21:44.379Z,12.80
2018-07-27T05:24:13.436Z,12.90
2018-07-27T05:26:42.511Z,13.70
2018-07-27T05:29:11.559Z,13.40
2018-07-27T05:31:40.627Z,12.83
2018-07-27T05:34:09.683Z,12.97
2018-07-27T05:36:38.766Z,12.20
2018-07-27T05:39:10.127Z,13.70
2018-07-27T05:41:39.200Z,13.13
2018-07-27T05:44:08.636Z,13.10
2018-07-27T05:46:37.715Z,12.90
2018-07-27T05:49:06.780Z,12.43
2018-07-27T05:51:35.851Z,11.80
2018-07-27T05:54:04.912Z,12.13
2018-07-27T05:56:34.100Z,11.73
2018-07-27T05:59:03.175Z,11.07
2018-07-27T06:01:31.996Z,10.47
2018-07-27T06:04:00.919Z,10.10
2018-07-27T06:06:29.991Z,10.77
2018-07-27T06:08:59.040Z,10.87
2018-07-27T06:11:28.117Z,10.53
2018-07-27T06:13:57.175Z,11.03
2018-07-27T06:16:26.271Z,9.83
2018-07-27T06:18:55.321Z,9.23
2018-07-27T06:21:24.368Z,9.50
2018-07-27T06:23:53.530Z,8.63
2018-07-27T06:26:22.612Z,8.93
2018-07-27T06:28:51.801Z,9.37
2018-07-27T06:31:20.852Z,8.83
2018-07-27T06:33:49.916Z,9.23
2018-07-27T06:36:18.715Z,9.13
2018-07-27T06:38:47.668Z,9.43
2018-07-27T06:41:16.720Z,9.20
2018-07-27T06:43:45.887Z,9.80
2018-07-27T06:46:14.723Z,8.83
2018-07-27T06:48:43.663Z,9.50
2018-07-27T06:51:12.715Z,8.97
2018-07-27T06:53:41.792Z,9.00
2018-07-27T06:56:10.838Z,9.03
2018-07-27T06:58:39.914Z,8.30
2018-07-27T07:01:08.959Z,8.60
2018-07-27T07:03:38.031Z,9.00
2018-07-27T07:06:07.095Z,9.13
2018-07-27T07:08:36.159Z,8.63
2018-07-27T07:11:05.216Z,8.93
2018-07-27T07:13:34.288Z,8.80
2018-07-27T07:16:03.355Z,8.53
2018-07-27T07:18:32.423Z,9.07
2018-07-27T07:21:01.219Z,8.53
2018-07-27T07:23:30.163Z,8.43
2018-07-27T07:25:59.537Z,8.90
2018-07-27T07:28:28.623Z,9.20
2018-07-27T07:30:57.669Z,8.77
2018-07-27T07:33:26.751Z,8.97
2018-07-27T07:35:55.911Z,8.93
2018-07-27T07:38:24.967Z,8.50
2018-07-27T07:40:54.028Z,8.37
2018-07-27T07:43:23.092Z,8.40
2018-07-27T07:45:51.877Z,7.63
2018-07-27T07:48:20.807Z,7.90
2018-07-27T07:50:49.848Z,7.60
2018-07-27T07:53:18.924Z,7.33
2018-07-27T07:55:47.958Z,7.40
2018-07-27T07:58:16.747Z,7.53
2018-07-27T08:00:45.814Z,6.80
2018-07-27T08:03:14.858Z,7.27
2018-07-27T08:05:43.916Z,7.63
2018-07-27T08:08:12.959Z,6.90
2018-07-27T08:10:42.007Z,6.87
2018-07-27T08:13:11.059Z,6.60
2018-07-27T08:15:40.136Z,6.23
2018-07-27T08:18:09.167Z,6.60
2018-07-27T08:20:38.215Z,7.13
2018-07-27T08:23:07.719Z,6.67
2018-07-27T08:26:57.864Z,7.50
2018-07-27T08:29:29.004Z,7.37
2018-07-27T08:31:58.496Z,6.93
2018-07-27T08:34:27.583Z,6.80
2018-07-27T08:36:56.623Z,6.60
2018-07-27T08:39:26.932Z,6.47
2018-07-27T08:41:55.974Z,6.87
2018-07-27T08:44:25.967Z,6.50
2018-07-27T08:46:54.884Z,7.23
2018-07-27T08:49:23.939Z,7.08
2018-07-27T08:51:52.990Z,7.75
2018-07-27T08:54:22.028Z,7.30
2018-07-27T08:56:51.091Z,7.20
2018-07-27T08:59:20.140Z,6.47
2018-07-27T09:01:49.225Z,6.50
2018-07-27T09:04:18.267Z,7.25
2018-07-27T09:06:47.335Z,7.30
2018-07-27T09:09:17.501Z,6.83
2018-07-27T09:11:46.560Z,6.33
2018-07-27T09:14:15.587Z,6.37
2018-07-27T09:16:44.663Z,5.17
2018-07-27T09:19:13.455Z,5.08
2018-07-27T09:21:43.520Z,5.78
2018-07-27T09:24:12.688Z,5.28
2018-07-27T09:26:41.703Z,5.47
2018-07-27T09:29:10.743Z,5.45
2018-07-27T09:31:39.813Z,5.90
2018-07-27T09:34:08.922Z,6.30
2018-07-27T09:36:37.931Z,6.00
2018-07-27T09:39:08.704Z,6.50
2018-07-27T09:41:37.772Z,5.67
2018-07-27T09:44:06.735Z,5.95
2018-07-27T09:46:35.875Z,6.10
2018-07-27T09:49:04.920Z,6.05
2018-07-27T09:51:34.068Z,6.12
2018-07-27T09:54:03.091Z,6.00
2018-07-27T09:56:32.148Z,5.60
2018-07-27T09:59:00.942Z,5.47
2018-07-27T10:01:30.183Z,5.80
2018-07-27T10:03:59.223Z,5.55
2018-07-27T10:06:28.279Z,5.40
2018-07-27T10:08:57.320Z,5.45
2018-07-27T10:11:26.380Z,5.53
2018-07-27T10:13:55.415Z,5.70
2018-07-27T10:16:24.270Z,5.70
2018-07-27T10:18:53.552Z,5.62
2018-07-27T10:21:22.590Z,5.17
2018-07-27T10:23:51.651Z,4.60
2018-07-27T10:26:20.695Z,4.35
2018-07-27T10:28:49.759Z,4.03
2018-07-27T10:31:18.813Z,4.30
2018-07-27T10:33:47.875Z,4.30
2018-07-27T10:36:16.923Z,4.22
2018-07-27T10:38:46.052Z,4.20
2018-07-27T10:41:15.051Z,4.20
2018-07-27T10:43:44.110Z,4.12
2018-07-27T10:46:13.147Z,4.67
2018-07-27T10:48:42.215Z,4.08
2018-07-27T10:51:11.255Z,4.45
2018-07-27T10:53:40.322Z,3.83
2018-07-27T10:56:09.404Z,4.50
2018-07-27T10:58:38.464Z,4.25
2018-07-27T11:01:07.516Z,4.30
2018-07-27T11:03:36.603Z,3.85
2018-07-27T11:06:05.652Z,4.30
2018-07-27T11:08:34.895Z,3.58
2018-07-27T11:11:03.939Z,3.42
2018-07-27T11:13:33.004Z,3.98
2018-07-27T11:16:02.072Z,3.42
2018-07-27T11:18:31.140Z,3.60
2018-07-27T11:21:00.187Z,3.25
2018-07-27T11:23:29.264Z,3.35
2018-07-27T11:25:58.303Z,3.55
2018-07-27T11:28:27.118Z,3.50
2018-07-27T11:30:55.834Z,3.52
2018-07-27T11:33:24.752Z,3.65
2018-07-27T11:35:53.844Z,3.85
2018-07-27T11:38:22.944Z,3.42
2018-07-27T11:40:52.013Z,3.17
2018-07-27T11:43:21.055Z,3.30
2018-07-27T11:45:49.867Z,3.50
2018-07-27T11:48:18.551Z,3.30
2018-07-27T11:50:47.235Z,3.27
2018-07-27T11:53:15.898Z,3.10
2018-07-27T11:55:44.860Z,3.17
2018-07-27T11:58:13.939Z,3.33
2018-07-27T12:00:43.004Z,3.58
2018-07-27T12:03:12.050Z,3.30
2018-07-27T12:05:41.119Z,3.37
2018-07-27T12:08:10.171Z,3.60
2018-07-27T12:10:39.803Z,3.95
2018-07-27T12:13:08.733Z,4.37
2018-07-27T12:15:37.830Z,4.42
2018-07-27T12:18:06.871Z,4.35
2018-07-27T12:20:35.704Z,4.58
2018-07-27T12:23:04.637Z,4.62
2018-07-27T12:25:33.699Z,4.60
2018-07-27T12:28:02.732Z,4.42
2018-07-27T12:30:32.196Z,4.30
2018-07-27T12:33:01.234Z,4.30
2018-07-27T12:35:30.291Z,4.80
2018-07-27T12:37:59.576Z,4.58
2018-07-27T12:40:28.636Z,4.50
2018-07-27T12:42:57.423Z,4.50
2018-07-27T12:45:26.355Z,4.45
2018-07-27T12:47:55.387Z,4.35
2018-07-27T12:50:24.456Z,5.00
2018-07-27T12:52:53.498Z,4.40
2018-07-27T12:55:22.531Z,4.22
2018-07-27T12:57:51.587Z,4.45
2018-07-27T13:00:20.615Z,4.70
2018-07-27T13:02:49.756Z,4.60
2018-07-27T13:05:19.015Z,3.80
2018-07-27T13:07:48.035Z,3.95
2018-07-27T13:10:17.076Z,3.72
2018-07-27T13:12:45.889Z,3.30
2018-07-27T13:15:14.820Z,3.10
2018-07-27T13:17:43.883Z,3.00
2018-07-27T13:20:12.925Z,2.90
2018-07-27T13:22:41.988Z,2.47
2018-07-27T13:25:11.040Z,2.62
2018-07-27T13:27:40.111Z,2.50
2018-07-27T13:30:09.148Z,2.70
2018-07-27T13:32:38.209Z,2.33
2018-07-27T13:37:36.992Z,2.60
2018-07-27T13:40:06.189Z,2.22
2018-07-27T13:42:36.316Z,2.37
2018-07-27T13:45:05.464Z,2.37
2018-07-27T13:47:34.270Z,2.52
2018-07-27T13:50:02.939Z,2.67
2018-07-27T13:52:31.892Z,2.22
2018-07-27T13:55:00.936Z,2.65
2018-07-27T13:57:30.056Z,2.42
2018-07-27T13:59:58.818Z,2.40
2018-07-27T14:02:27.783Z,2.27
2018-07-27T14:04:56.827Z,2.27
2018-07-27T14:07:25.877Z,2.40
2018-07-27T14:09:54.939Z,2.33
2018-07-27T14:12:24.082Z,2.40
2018-07-27T14:14:52.928Z,2.30
2018-07-27T14:17:21.940Z,2.40
2018-07-27T14:19:50.992Z,2.30
2018-07-27T14:22:20.032Z,2.15
2018-07-27T14:24:49.096Z,2.35
2018-07-27T14:27:18.172Z,2.50
2018-07-27T14:29:46.967Z,2.55
2018-07-27T14:32:15.631Z,2.30
2018-07-27T14:34:44.562Z,2.20
2018-07-27T14:37:13.608Z,2.10
2018-07-27T14:39:42.655Z,2.20
2018-07-27T14:42:11.695Z,2.40
2018-07-27T14:44:40.754Z,2.10
2018-07-27T14:47:09.798Z,2.20
2018-07-27T14:49:38.867Z,2.00
2018-07-27T14:52:07.952Z,2.37
2018-07-27T14:54:36.983Z,2.08
2018-07-27T14:57:06.040Z,2.15
2018-07-27T14:59:35.073Z,2.00
2018-07-27T15:02:03.882Z,2.22
2018-07-27T15:04:32.840Z,2.37
2018-07-27T15:07:01.896Z,2.17
2018-07-27T15:09:30.935Z,2.50
2018-07-27T15:11:59.992Z,2.12
2018-07-27T15:14:29.120Z,2.37
2018-07-27T15:16:58.199Z,2.45
2018-07-27T15:19:27.313Z,2.60
2018-07-27T15:21:56.375Z,2.33
2018-07-27T15:24:25.453Z,2.52
2018-07-27T15:26:54.529Z,2.10
2018-07-27T15:29:23.316Z,2.50
2018-07-27T15:31:52.256Z,2.47
2018-07-27T15:34:21.293Z,2.40
2018-07-27T15:36:50.351Z,2.85
2018-07-27T15:39:19.403Z,3.00
2018-07-27T15:41:48.247Z,3.33
2018-07-27T15:44:17.167Z,3.85
2018-07-27T15:46:46.240Z,3.65
2018-07-27T15:49:15.275Z,3.22
2018-07-27T15:51:44.731Z,3.20
2018-07-27T15:54:13.663Z,3.50
2018-07-27T15:56:42.899Z,3.10
2018-07-27T15:59:11.964Z,3.22
2018-07-27T16:01:40.999Z,3.00
2018-07-27T16:04:10.055Z,3.08
2018-07-27T16:06:39.088Z,2.65
2018-07-27T16:09:09.327Z,5.55
2018-07-27T16:11:38.368Z,6.95
2018-07-27T16:14:07.188Z,5.67
2018-07-27T16:16:35.902Z,3.77
2018-07-27T16:19:04.847Z,4.37
2018-07-27T16:21:33.648Z,3.75
2018-07-27T16:24:02.628Z,3.45
2018-07-27T16:26:31.422Z,3.08
2018-07-27T16:29:00.531Z,2.62
2018-07-27T16:31:29.579Z,2.83
2018-07-27T16:33:58.639Z,2.42
2018-07-27T16:36:27.430Z,2.50
2018-07-27T16:38:56.393Z,2.45
2018-07-27T16:41:25.445Z,2.15
2018-07-27T16:43:54.513Z,2.35
2018-07-27T16:46:23.558Z,2.35
2018-07-27T16:48:52.539Z,2.47
2018-07-27T16:51:21.459Z,3.10
2018-07-27T16:53:50.519Z,2.92
2018-07-27T16:56:19.559Z,2.67
2018-07-27T16:58:48.367Z,3.00
2018-07-27T17:01:17.034Z,2.90
2018-07-27T17:03:45.975Z,2.83
2018-07-27T17:06:15.073Z,3.17
2018-07-27T17:08:43.850Z,3.93
2018-07-27T17:11:12.769Z,2.90
2018-07-27T17:13:41.951Z,2.50
2018-07-27T17:16:11.244Z,2.80
2018-07-27T17:18:40.319Z,2.37
2018-07-27T17:21:14.590Z,2.40
2018-07-27T17:23:45.498Z,2.60
2018-07-27T17:26:14.786Z,2.57
2018-07-27T17:28:44.031Z,3.53
2018-07-27T17:31:13.068Z,3.30
2018-07-27T17:33:42.131Z,3.87
2018-07-27T17:36:11.179Z,4.23
2018-07-27T17:38:40.211Z,3.90
2018-07-27T17:41:09.264Z,4.30
2018-07-27T17:43:38.300Z,4.30
2018-07-27T17:46:07.682Z,6.57
2018-07-27T17:48:36.755Z,4.57
2018-07-27T17:51:05.831Z,4.10
2018-07-27T17:53:34.619Z,4.20
2018-07-27T17:56:03.547Z,4.50
2018-07-27T17:58:32.588Z,4.33
2018-07-27T18:01:01.695Z,4.37
2018-07-27T18:03:30.762Z,5.10
2018-07-27T18:05:59.831Z,5.30
2018-07-27T18:08:28.863Z,5.60
2018-07-27T18:10:57.915Z,6.37
2018-07-27T18:13:26.960Z,5.57
2018-07-27T18:15:56.040Z,5.53
2018-07-27T18:18:25.071Z,5.60
2018-07-27T18:20:53.879Z,6.23
2018-07-27T18:23:22.542Z,6.50
2018-07-27T18:25:51.511Z,7.17
2018-07-27T18:28:20.557Z,7.03
2018-07-27T18:30:49.619Z,7.40
2018-07-27T18:33:18.663Z,7.27
2018-07-27T18:35:47.720Z,7.63
2018-07-27T18:38:16.768Z,6.67
2018-07-27T18:40:45.831Z,7.07
2018-07-27T18:43:14.878Z,7.03
2018-07-27T18:45:44.004Z,6.83
2018-07-27T18:48:13.035Z,7.77
2018-07-27T18:50:42.103Z,8.00
2018-07-27T18:53:11.034Z,8.30
2018-07-27T18:55:39.976Z,7.33
2018-07-27T18:58:09.067Z,7.07
2018-07-27T19:00:37.931Z,7.00
2018-07-27T19:03:07.108Z,6.80
2018-07-27T19:05:36.139Z,6.93
2018-07-27T19:08:05.216Z,6.57
2018-07-27T19:10:34.343Z,6.90
2018-07-27T19:13:03.447Z,6.50
2018-07-27T19:15:32.264Z,6.90
2018-07-27T19:18:00.975Z,6.67
2018-07-27T19:20:30.331Z,6.70
2018-07-27T19:22:59.395Z,6.77
2018-07-27T19:25:28.307Z,6.67
2018-07-27T19:27:57.419Z,6.93
2018-07-27T19:30:26.309Z,7.57
2018-07-27T19:32:55.412Z,6.80
2018-07-27T19:35:24.460Z,6.80
2018-07-27T19:37:53.524Z,6.70
2018-07-27T19:40:22.576Z,7.33
2018-07-27T19:42:51.640Z,7.27
2018-07-27T19:45:20.694Z,7.10
2018-07-27T19:47:49.490Z,7.57
2018-07-27T19:50:18.198Z,7.73
2018-07-27T19:52:46.895Z,8.13
2018-07-27T19:55:15.804Z,8.10
2018-07-27T19:57:44.864Z,8.47
2018-07-27T20:00:13.903Z,8.60
2018-07-27T20:02:42.963Z,8.20
2018-07-27T20:05:12.359Z,8.37
2018-07-27T20:07:41.588Z,9.10
2018-07-27T20:10:10.632Z,8.90
2018-07-27T20:12:39.594Z,9.23
2018-07-27T20:15:08.643Z,9.13
2018-07-27T20:17:37.807Z,9.63
2018-07-27T20:20:07.979Z,9.10
2018-07-27T20:22:37.120Z,9.27
2018-07-27T20:25:06.984Z,9.60
2018-07-27T20:27:36.593Z,8.93
2018-07-27T20:30:06.123Z,10.17
2018-07-27T20:32:35.183Z,9.30
2018-07-27T20:35:04.243Z,10.57
2018-07-27T20:37:33.322Z,10.70
2018-07-27T20:40:02.384Z,11.60
2018-07-27T20:42:31.583Z,12.20
2018-07-27T20:45:00.651Z,14.63
2018-07-27T20:47:29.706Z,14.53
2018-07-27T20:49:58.775Z,14.27
2018-07-27T20:52:27.903Z,15.67
2018-07-27T20:54:56.975Z,13.80
2018-07-27T20:57:26.056Z,14.53
2018-07-27T20:59:55.279Z,13.13
2018-07-27T21:02:24.359Z,12.67
2018-07-27T21:04:53.423Z,13.40
2018-07-27T21:07:23.150Z,14.00
2018-07-27T21:09:51.895Z,15.13
2018-07-27T21:12:20.815Z,15.37
2018-07-27T21:14:49.879Z,15.10
2018-07-27T21:17:18.951Z,15.17
2018-07-27T21:19:48.023Z,14.83
2018-07-27T21:22:17.492Z,16.67
2018-07-27T21:24:46.555Z,15.60
2018-07-27T21:27:15.607Z,15.70
2018-07-27T21:29:44.692Z,17.00
2018-07-27T21:32:13.486Z,15.80
2018-07-27T21:34:42.427Z,16.27
2018-07-27T21:37:11.479Z,16.50
2018-07-27T21:39:40.552Z,15.03
2018-07-27T21:42:09.608Z,15.90
2018-07-27T21:44:38.675Z,15.27
2018-07-27T21:47:07.715Z,16.63
2018-07-27T21:49:36.795Z,16.60
2018-07-27T21:52:05.987Z,17.77
2018-07-27T21:54:35.064Z,17.40
2018-07-27T21:57:04.111Z,19.50
2018-07-27T21:59:33.191Z,16.80
2018-07-27T22:02:02.477Z,16.93
2018-07-27T22:04:31.691Z,19.20
2018-07-27T22:07:00.768Z,18.13
2018-07-27T22:09:29.776Z,22.67
2018-07-27T22:11:58.709Z,23.07
2018-07-27T22:14:27.760Z,23.37
2018-07-27T22:16:57.379Z,19.30
2018-07-27T22:19:26.419Z,23.00
2018-07-27T22:21:55.235Z,21.17
2018-07-27T22:24:23.907Z,20.37
2018-07-27T22:26:52.959Z,24.80
2018-07-27T22:29:22.023Z,21.83
2018-07-27T22:31:51.115Z,27.60
2018-07-27T22:34:20.159Z,27.60
2018-07-27T22:36:49.324Z,26.63
2018-07-27T22:39:18.367Z,25.53
2018-07-27T22:41:47.182Z,26.37
2018-07-27T22:44:16.004Z,25.90
2018-07-27T22:46:44.944Z,26.83
2018-07-27T22:49:13.747Z,25.70
2018-07-27T22:51:42.801Z,29.03
2018-07-27T22:54:11.755Z,23.47
2018-07-27T22:56:40.823Z,29.93
2018-07-27T22:59:10.031Z,29.17
2018-07-27T23:01:38.979Z,24.57
2018-07-27T23:04:08.012Z,34.33
2018-07-27T23:06:36.864Z,32.47
2018-07-27T23:09:07.548Z,34.17
2018-07-27T23:11:36.702Z,32.07
2018-07-27T23:14:05.778Z,32.77
2018-07-27T23:16:35.079Z,30.37
2018-07-27T23:19:04.135Z,29.60
2018-07-27T23:21:33.217Z,31.40
2018-07-27T23:24:02.289Z,31.37
2018-07-27T23:26:31.396Z,30.07
2018-07-27T23:29:00.443Z,29.93
2018-07-27T23:31:29.579Z,34.57
2018-07-27T23:33:58.840Z,38.83
2018-07-27T23:36:27.921Z,35.13
2018-07-27T23:38:56.980Z,41.03
2018-07-27T23:41:26.031Z,35.03
2018-07-27T23:43:55.105Z,33.67
2018-07-27T23:46:24.152Z,33.97
2018-07-27T23:48:53.228Z,28.93
2018-07-27T23:51:22.276Z,33.33
2018-07-27T23:53:51.347Z,33.23
2018-07-27T23:56:20.408Z,35.67
2018-07-27T23:58:49.486Z,38.97
